Time;durP1;ratioP1;P1;durP2;ratioP2;P2;SDS_P1;SDS_P2;PMS_P1;PMS_P2;Temp;Humidity;BMP_temperature;BMP_pressure;BME280_temperature;BME280_humidity;BME280_pressure;Samples;Min_cycle;Max_cycle;Signal;HPM_P1;HPM_P2
2021/05/20 00:00:54;;;;;;;15.93;12.93;;;;;;;7.49;100.00;101474.03;4951906;28;20105;-82
2021/05/20 00:03:21;;;;;;;16.23;11.93;;;;;;;7.40;100.00;101473.81;4968715;28;20034;-81
2021/05/20 00:05:46;;;;;;;17.52;14.60;;;;;;;7.41;100.00;101480.81;4994785;28;20043;-80
2021/05/20 00:08:12;;;;;;;14.32;12.50;;;;;;;7.34;100.00;101490.34;4976724;28;20050;-81
2021/05/20 00:10:37;;;;;;;16.15;14.00;;;;;;;7.30;100.00;101486.19;4975427;28;20133;-82
2021/05/20 00:13:05;;;;;;;16.27;14.02;;;;;;;7.27;100.00;101489.13;4987922;28;20493;-82
2021/05/20 00:15:31;;;;;;;17.70;13.25;;;;;;;7.20;100.00;101493.28;4983610;28;20389;-81
2021/05/20 00:17:57;;;;;;;15.80;13.30;;;;;;;7.15;100.00;101490.97;4994417;28;20058;-81
2021/05/20 00:20:22;;;;;;;17.23;13.55;;;;;;;7.12;100.00;101495.72;4993572;28;20054;-82
2021/05/20 00:22:47;;;;;;;15.95;12.85;;;;;;;7.05;100.00;101489.16;4977133;28;20034;-81
2021/05/20 00:25:14;;;;;;;16.83;14.02;;;;;;;7.01;100.00;101492.09;4959091;28;20036;-80
2021/05/20 00:27:41;;;;;;;16.52;13.70;;;;;;;6.95;100.00;101491.75;4983079;28;20594;-80
2021/05/20 00:30:10;;;;;;;18.48;14.98;;;;;;;6.91;100.00;101492.97;4970892;28;20042;-81
2021/05/20 00:32:36;;;;;;;17.47;14.03;;;;;;;6.83;100.00;101492.75;4972564;28;20050;-81
2021/05/20 00:35:03;;;;;;;18.20;14.85;;;;;;;6.81;100.00;101490.19;4967885;28;20415;-81
2021/05/20 00:37:29;;;;;;;16.33;14.02;;;;;;;6.78;100.00;101495.75;4981351;28;20092;-81
2021/05/20 00:39:54;;;;;;;18.13;15.15;;;;;;;6.75;100.00;101498.69;4984931;28;20042;-81
2021/05/20 00:42:21;;;;;;;18.73;16.52;;;;;;;6.74;100.00;101502.31;4952400;28;20088;-81
2021/05/20 00:44:58;;;;;;;23.98;18.85;;;;;;;6.80;100.00;101496.50;4954545;28;20053;-81
2021/05/20 00:47:26;;;;;;;22.63;17.90;;;;;;;6.80;100.00;101498.31;4982142;28;20046;-81
2021/05/20 00:49:53;;;;;;;19.15;16.75;;;;;;;6.72;100.00;101498.94;4969068;28;20495;-81
2021/05/20 00:52:20;;;;;;;18.45;14.43;;;;;;;6.67;100.00;101511.78;4967082;28;20155;-80
2021/05/20 00:54:50;;;;;;;20.48;15.27;;;;;;;6.62;100.00;101509.50;4987107;28;20062;-81
2021/05/20 00:57:18;;;;;;;19.02;16.33;;;;;;;6.66;100.00;101505.59;4987964;28;20045;-81
2021/05/20 00:59:45;;;;;;;20.00;15.70;;;;;;;6.65;100.00;101505.72;4973396;28;20448;-80
2021/05/20 01:02:17;;;;;;;16.67;14.90;;;;;;;6.63;100.00;101510.34;4980096;28;20125;-80
2021/05/20 01:04:47;;;;;;;16.23;13.68;;;;;;;6.60;100.00;101500.75;4980986;28;20035;-80
2021/05/20 01:07:12;;;;;;;17.38;13.95;;;;;;;6.53;100.00;101503.06;4987834;28;20049;-80
2021/05/20 01:09:38;;;;;;;16.55;14.27;;;;;;;6.51;100.00;101502.31;4977638;28;20047;-81
2021/05/20 01:12:07;;;;;;;18.30;14.30;;;;;;;6.48;100.00;101502.56;4992120;28;20042;-80
2021/05/20 01:14:42;;;;;;;16.20;13.80;;;;;;;6.43;100.00;101502.06;4969820;28;20042;-81
2021/05/20 01:17:08;;;;;;;15.63;13.10;;;;;;;6.40;100.00;101491.66;4990336;28;20125;-81
2021/05/20 01:20:00;;;;;;;18.77;14.35;;;;;;;6.38;100.00;101496.25;4990770;28;20452;-82
2021/05/20 01:22:25;;;;;;;18.10;14.63;;;;;;;6.36;100.00;101502.66;4970153;28;20641;-82
2021/05/20 01:24:51;;;;;;;17.10;15.02;;;;;;;6.37;100.00;101501.72;4944903;28;20066;-81
2021/05/20 01:27:16;;;;;;;15.45;13.05;;;;;;;6.30;100.00;101512.84;4959075;28;20490;-80
2021/05/20 01:29:43;;;;;;;17.08;15.07;;;;;;;6.28;100.00;101511.28;4990901;28;20379;-80
2021/05/20 01:32:10;;;;;;;17.45;14.07;;;;;;;6.30;100.00;101512.84;4974988;28;20165;-82
2021/05/20 01:34:37;;;;;;;17.67;14.30;;;;;;;6.32;100.00;101504.72;4971969;28;20049;-82
2021/05/20 01:37:04;;;;;;;17.83;12.55;;;;;;;6.22;100.00;101509.09;4966928;28;20043;-81
2021/05/20 01:39:30;;;;;;;16.60;14.07;;;;;;;6.17;100.00;101504.09;4977235;28;20130;-82
2021/05/20 01:41:55;;;;;;;16.50;14.43;;;;;;;6.18;100.00;101510.28;4966346;28;20141;-81
2021/05/20 01:44:21;;;;;;;18.52;14.02;;;;;;;6.10;100.00;101514.38;4971112;28;20035;-81
2021/05/20 01:46:47;;;;;;;17.83;13.88;;;;;;;6.10;100.00;101509.06;4991597;28;20049;-81
2021/05/20 01:49:12;;;;;;;18.83;15.25;;;;;;;6.12;100.00;101511.59;4968961;28;20038;-81
2021/05/20 01:51:38;;;;;;;16.52;14.45;;;;;;;6.12;100.00;101516.06;4989085;28;20046;-81
2021/05/20 01:54:04;;;;;;;15.55;13.40;;;;;;;6.01;100.00;101517.75;4965363;28;20063;-81
2021/05/20 01:56:34;;;;;;;16.45;14.07;;;;;;;5.96;100.00;101517.25;4961330;28;20082;-81
2021/05/20 01:59:00;;;;;;;17.20;14.35;;;;;;;5.92;100.00;101514.91;4984376;28;20106;-80
2021/05/20 02:01:25;;;;;;;17.00;12.85;;;;;;;5.92;100.00;101509.56;4973129;28;20053;-79
2021/05/20 02:03:50;;;;;;;16.27;12.93;;;;;;;5.87;100.00;101501.94;4985559;28;20403;-80
2021/05/20 02:06:16;;;;;;;15.52;13.20;;;;;;;5.84;100.00;101502.16;4984311;28;20054;-80
2021/05/20 02:08:41;;;;;;;15.43;12.70;;;;;;;5.78;100.00;101507.94;4981897;28;20142;-80
2021/05/20 02:11:07;;;;;;;15.95;14.25;;;;;;;5.78;100.00;101513.28;4979718;28;20042;-79
2021/05/20 02:13:34;;;;;;;15.20;12.98;;;;;;;5.80;100.00;101511.34;4987383;28;20050;-81
2021/05/20 02:16:00;;;;;;;14.88;12.10;;;;;;;5.72;100.00;101514.59;4985198;28;20046;-81
2021/05/20 02:18:25;;;;;;;15.82;12.35;;;;;;;5.71;100.00;101506.72;4987674;28;20045;-80
2021/05/20 02:20:51;;;;;;;15.52;13.10;;;;;;;5.72;100.00;101508.41;4990841;28;20360;-80
2021/05/20 02:23:17;;;;;;;15.10;13.30;;;;;;;5.70;100.00;101511.22;4965341;28;20038;-80
2021/05/20 02:25:42;;;;;;;13.75;12.25;;;;;;;5.62;100.00;101514.44;4986988;28;20101;-81
2021/05/20 02:28:08;;;;;;;15.93;13.27;;;;;;;5.58;100.00;101515.63;4972984;28;20034;-80
2021/05/20 02:30:34;;;;;;;14.57;12.18;;;;;;;5.57;100.00;101513.91;4973194;28;20049;-80
2021/05/20 02:33:00;;;;;;;15.40;13.27;;;;;;;5.57;100.00;101513.91;4973678;28;20056;-79
2021/05/20 02:35:26;;;;;;;15.63;13.18;;;;;;;5.55;100.00;101518.53;4968030;28;20061;-80
2021/05/20 02:37:52;;;;;;;13.23;11.70;;;;;;;5.54;100.00;101524.81;4974041;28;20042;-80
2021/05/20 02:40:18;;;;;;;13.27;11.13;;;;;;;5.47;100.00;101526.22;4989013;28;20046;-81
2021/05/20 02:42:44;;;;;;;15.77;13.70;;;;;;;5.54;100.00;101526.63;4971320;28;20548;-81
2021/05/20 02:45:18;;;;;;;15.80;12.52;;;;;;;5.53;100.00;101520.44;4982246;28;20410;-80
2021/05/20 02:47:44;;;;;;;15.00;11.82;;;;;;;5.50;100.00;101520.69;4985513;28;20573;-81
2021/05/20 02:50:10;;;;;;;14.25;11.27;;;;;;;5.36;100.00;101524.34;4985603;28;20046;-82
2021/05/20 02:52:36;;;;;;;14.60;11.98;;;;;;;5.33;100.00;101534.38;4984675;28;20034;-80
2021/05/20 02:55:03;;;;;;;15.20;13.55;;;;;;;5.43;100.00;101528.25;4969971;28;20054;-82
2021/05/20 02:57:32;;;;;;;14.02;11.68;;;;;;;5.40;100.00;101528.47;4989593;28;20049;-81
2021/05/20 02:59:57;;;;;;;14.10;12.05;;;;;;;5.36;100.00;101534.16;4971930;28;20042;-81
2021/05/20 03:02:23;;;;;;;15.05;12.10;;;;;;;5.28;100.00;101542.69;4971410;28;20046;-80
2021/05/20 03:04:50;;;;;;;14.70;12.35;;;;;;;5.28;100.00;101536.53;4987281;28;20062;-80
2021/05/20 03:07:16;;;;;;;14.25;12.75;;;;;;;5.29;100.00;101543.53;4966437;28;20043;-81
2021/05/20 03:09:42;;;;;;;15.02;12.13;;;;;;;5.30;100.00;101539.94;4981582;28;20511;-81
2021/05/20 03:12:08;;;;;;;14.00;12.32;;;;;;;5.27;100.00;101545.47;4972841;28;20076;-80
2021/05/20 03:14:34;;;;;;;13.00;10.82;;;;;;;5.26;100.00;101543.75;4964876;28;20039;-80
2021/05/20 03:16:59;;;;;;;14.15;12.25;;;;;;;5.25;100.00;101542.06;4963307;28;20049;-80
2021/05/20 03:19:24;;;;;;;13.10;11.30;;;;;;;5.18;100.00;101536.34;4945258;28;20042;-80
2021/05/20 03:21:50;;;;;;;14.93;13.32;;;;;;;5.22;100.00;101540.47;4981698;28;20043;-81
2021/05/20 03:24:16;;;;;;;15.82;13.93;;;;;;;5.26;100.00;101544.59;4954159;28;20050;-80
2021/05/20 03:26:41;;;;;;;15.00;12.63;;;;;;;5.22;100.00;101542.28;4989738;28;20066;-80
2021/05/20 03:29:06;;;;;;;13.55;11.68;;;;;;;5.15;100.00;101537.41;4982142;28;20053;-80
2021/05/20 03:31:32;;;;;;;17.75;14.00;;;;;;;5.16;100.00;101539.09;4965805;28;20045;-79
2021/05/20 03:33:59;;;;;;;14.32;12.48;;;;;;;5.09;100.00;101542.31;4982720;28;20054;-80
2021/05/20 03:36:26;;;;;;;16.65;14.23;;;;;;;5.14;100.00;101545.50;4952980;28;20046;-81
2021/05/20 03:38:58;;;;;;;17.35;14.75;;;;;;;5.23;100.00;101549.31;4989573;28;20046;-81
2021/05/20 03:41:23;;;;;;;20.10;16.60;;;;;;;5.22;100.00;101548.47;4971308;28;20034;-82
2021/05/20 03:43:49;;;;;;;21.33;16.63;;;;;;;5.23;100.00;101546.66;4974780;28;20054;-79
2021/05/20 03:46:15;;;;;;;23.33;18.40;;;;;;;5.24;100.00;101548.38;4973944;28;20042;-80
2021/05/20 03:48:47;;;;;;;17.23;15.07;;;;;;;5.19;100.00;101549.53;4989881;28;20101;-81
2021/05/20 03:51:14;;;;;;;18.77;15.60;;;;;;;5.12;100.00;101550.94;4975755;28;20053;-81
2021/05/20 03:53:39;;;;;;;20.63;16.80;;;;;;;5.09;100.00;101545.84;4993769;28;20876;-79
2021/05/20 03:56:05;;;;;;;20.35;15.93;;;;;;;5.08;100.00;101546.78;4994299;28;20074;-82
2021/05/20 03:58:33;;;;;;;19.08;16.42;;;;;;;5.09;100.00;101543.19;4974750;28;20034;-79
2021/05/20 04:00:58;;;;;;;21.00;17.75;;;;;;;5.10;100.00;101538.72;4989377;28;20101;-81
2021/05/20 04:03:29;;;;;;;26.00;20.45;;;;;;;5.13;100.00;101546.47;4986852;28;20404;-81
2021/05/20 04:06:00;;;;;;;26.42;20.60;;;;;;;5.14;100.00;101551.66;4987428;28;20487;-81
2021/05/20 04:08:37;;;;;;;23.88;19.55;;;;;;;5.18;100.00;101547.00;4985834;28;20072;-80
2021/05/20 04:11:04;;;;;;;21.08;17.83;;;;;;;5.17;100.00;101545.28;4985938;28;20038;-80
2021/05/20 04:13:31;;;;;;;23.65;19.00;;;;;;;5.14;100.00;101545.50;4987579;28;20486;-81
2021/05/20 04:15:59;;;;;;;26.65;21.60;;;;;;;5.18;100.00;101552.31;4991021;28;20050;-81
2021/05/20 04:18:25;;;;;;;27.10;18.95;;;;;;;5.20;100.00;101551.22;4976834;28;20755;-80
2021/05/20 04:20:52;;;;;;;24.75;20.10;;;;;;;5.25;100.00;101552.72;4974003;28;20085;-80
2021/05/20 04:23:20;;;;;;;25.10;20.48;;;;;;;5.20;100.00;101545.91;4955342;28;20156;-81
2021/05/20 04:25:49;;;;;;;33.35;24.40;;;;;;;5.31;100.00;101541.63;4965920;28;20487;-81
2021/05/20 04:28:16;;;;;;;28.85;23.15;;;;;;;5.38;100.00;101551.72;4990304;28;20495;-80
2021/05/20 04:30:42;;;;;;;46.08;32.03;;;;;;;5.47;100.00;101555.50;4972397;28;20046;-81
2021/05/20 04:33:11;;;;;;;37.60;28.88;;;;;;;5.59;100.00;101549.28;4990483;28;20034;-79
2021/05/20 04:35:37;;;;;;;57.85;37.50;;;;;;;5.76;100.00;101553.34;4988678;28;20479;-79
2021/05/20 04:38:09;;;;;;;46.17;33.67;;;;;;;5.91;100.00;101556.69;4990491;28;20043;-79
2021/05/20 04:40:37;;;;;;;54.28;37.65;;;;;;;6.01;100.00;101552.41;4956380;28;22810;-80
2021/05/20 04:43:03;;;;;;;53.50;35.95;;;;;;;6.08;100.00;101545.63;4993469;28;20066;-81
2021/05/20 04:45:29;;;;;;;56.10;39.25;;;;;;;6.17;100.00;101548.56;4969765;28;20038;-79
2021/05/20 04:47:54;;;;;;;51.50;36.35;;;;;;;6.19;100.00;101559.97;4983723;28;20141;-83
2021/05/20 04:50:20;;;;;;;57.92;40.88;;;;;;;6.25;100.00;101559.50;4952774;28;20149;-80
2021/05/20 04:52:46;;;;;;;60.88;42.42;;;;;;;6.39;100.00;101567.28;4970626;28;20138;-82
2021/05/20 04:55:13;;;;;;;67.82;43.63;;;;;;;6.52;100.00;101561.84;4986565;28;20046;-80
2021/05/20 04:57:39;;;;;;;66.88;44.38;;;;;;;6.63;100.00;101566.34;4995287;28;20030;-79
2021/05/20 05:00:06;;;;;;;72.07;46.35;;;;;;;6.71;100.00;101571.94;4962467;28;20051;-80
2021/05/20 05:02:31;;;;;;;66.72;45.10;;;;;;;6.80;100.00;101570.34;4961045;28;20050;-81
2021/05/20 05:04:57;;;;;;;67.97;44.55;;;;;;;6.88;100.00;101567.94;4961558;28;20046;-81
2021/05/20 05:07:23;;;;;;;68.05;48.25;;;;;;;6.93;100.00;101566.59;4968685;28;20561;-82
2021/05/20 05:09:49;;;;;;;71.25;48.05;;;;;;;6.99;100.00;101566.09;4970962;28;20495;-80
2021/05/20 05:12:14;;;;;;;77.13;50.20;;;;;;;7.11;100.00;101566.09;4938670;28;20042;-79
2021/05/20 05:14:39;;;;;;;78.28;47.08;;;;;;;7.21;100.00;101583.06;4958888;28;20049;-81
2021/05/20 05:17:05;;;;;;;81.05;47.33;;;;;;;7.28;100.00;101568.28;4986094;28;20148;-79
2021/05/20 05:19:30;;;;;;;76.50;51.22;;;;;;;7.35;100.00;101580.13;4956175;28;20040;-81
2021/05/20 05:21:59;;;;;;;79.95;47.13;;;;;;;7.44;100.00;101574.03;4984307;28;20049;-81
2021/05/20 05:24:25;;;;;;;74.10;46.28;;;;;;;7.47;100.00;101576.47;4965108;28;20050;-79
2021/05/20 05:26:50;;;;;;;83.47;45.88;;;;;;;7.52;100.00;101578.75;4985874;28;20445;-80
2021/05/20 05:29:16;;;;;;;77.75;47.33;;;;;;;7.57;100.00;101587.25;4959573;28;20502;-79
2021/05/20 05:31:41;;;;;;;88.35;52.60;;;;;;;7.67;100.00;101590.00;4982350;28;20050;-82
2021/05/20 05:34:07;;;;;;;86.05;49.80;;;;;;;7.75;100.00;101584.91;4977354;28;20511;-81
2021/05/20 05:36:34;;;;;;;86.63;54.45;;;;;;;7.72;100.00;101581.63;4988420;28;20050;-78
2021/05/20 05:39:02;;;;;;;86.93;52.67;;;;;;;7.79;100.00;101589.00;4967274;28;20450;-79
2021/05/20 05:41:29;;;;;;;93.22;54.83;;;;;;;7.86;100.00;101589.34;4990885;28;20494;-80
2021/05/20 05:43:55;;;;;;;92.95;56.08;;;;;;;7.93;100.00;101587.00;4991926;28;20050;-80
2021/05/20 05:46:21;;;;;;;97.97;58.88;;;;;;;7.99;100.00;101591.84;4952503;28;20580;-82
2021/05/20 05:48:49;;;;;;;94.60;55.92;;;;;;;8.03;100.00;101587.97;4986314;28;20042;-79
2021/05/20 05:51:18;;;;;;;97.68;64.50;;;;;;;8.08;100.00;101593.75;4968507;28;20348;-80
2021/05/20 05:53:44;;;;;;;;;;;;;;;8.12;100.00;101585.34;4975320;28;20121;-80
2021/05/20 05:56:09;;;;;;;96.93;63.38;;;;;;;8.12;100.00;101579.16;4964424;28;20589;-79
2021/05/20 05:58:36;;;;;;;94.93;59.55;;;;;;;8.17;100.00;101568.94;4986220;28;20054;-81
2021/05/20 06:01:03;;;;;;;100.13;61.47;;;;;;;8.28;100.00;101571.50;4969804;28;20050;-80
2021/05/20 06:03:33;;;;;;;90.28;58.63;;;;;;;8.33;100.00;101574.66;4985403;28;20034;-79
2021/05/20 06:06:01;;;;;;;93.10;59.60;;;;;;;8.40;100.00;101579.50;4969767;28;20034;-80
2021/05/20 06:08:32;;;;;;;80.25;56.17;;;;;;;8.44;100.00;101572.94;4968124;28;20042;-81
2021/05/20 06:10:58;;;;;;;79.25;53.67;;;;;;;8.50;100.00;101575.91;4970475;28;20109;-81
2021/05/20 06:13:26;;;;;;;77.15;54.35;;;;;;;8.54;100.00;101573.81;4981841;28;20050;-81
2021/05/20 06:15:52;;;;;;;79.68;49.97;;;;;;;8.57;100.00;101577.09;4985431;28;21977;-82
2021/05/20 06:18:20;;;;;;;77.18;53.65;;;;;;;8.62;100.00;101574.00;4971332;28;20211;-80
2021/05/20 06:20:45;;;;;;;76.40;53.28;;;;;;;8.77;100.00;101572.69;4959985;28;20452;-83
2021/05/20 06:23:11;;;;;;;73.22;49.58;;;;;;;8.90;100.00;101577.81;4991010;28;20125;-83
2021/05/20 06:25:37;;;;;;;71.25;47.90;;;;;;;8.95;100.00;101580.94;4973182;28;20034;-82
2021/05/20 06:28:07;;;;;;;75.28;52.03;;;;;;;8.96;100.00;101577.28;4989026;28;20093;-81
2021/05/20 06:30:33;;;;;;;72.53;52.20;;;;;;;9.03;100.00;101577.59;4983791;28;20125;-81
2021/05/20 06:32:59;;;;;;;71.53;52.72;;;;;;;9.16;100.00;101580.88;4969882;28;20088;-81
2021/05/20 06:35:24;;;;;;;70.20;46.90;;;;;;;9.15;100.00;101584.56;4986468;28;20554;-79
2021/05/20 06:37:51;;;;;;;61.80;43.80;;;;;;;9.21;100.00;101586.69;4970052;28;20046;-83
2021/05/20 06:40:17;;;;;;;63.92;45.95;;;;;;;9.26;100.00;101580.91;4968788;28;20046;-81
2021/05/20 06:42:42;;;;;;;67.88;49.88;;;;;;;9.33;100.00;101583.91;4981448;28;20046;-82
2021/05/20 06:45:10;;;;;;;65.40;46.88;;;;;;;9.39;100.00;101589.56;4975016;28;20042;-81
2021/05/20 06:47:35;;;;;;;63.35;47.78;;;;;;;9.48;100.00;101593.25;4979435;28;20046;-81
2021/05/20 06:50:07;;;;;;;67.97;50.13;;;;;;;9.47;100.00;101594.22;4986781;28;20112;-83
2021/05/20 06:52:33;;;;;;;74.20;49.08;;;;;;;9.51;100.00;101601.00;4966186;28;20053;-81
2021/05/20 06:54:58;;;;;;;72.75;48.70;;;;;;;9.36;100.00;101600.53;4986002;28;20046;-82
2021/05/20 07:00:02;;;;;;;79.78;51.00;;;;;;;9.16;100.00;101610.34;4981458;28;20070;-80
2021/05/20 07:02:29;;;;;;;86.03;56.60;;;;;;;9.12;100.00;101606.25;4984107;28;20042;-83
2021/05/20 07:04:56;;;;;;;88.50;59.00;;;;;;;9.21;100.00;101608.09;4967824;28;20045;-80
2021/05/20 07:07:22;;;;;;;88.88;57.00;;;;;;;9.17;100.00;101612.03;4969058;28;20137;-80
2021/05/20 07:09:48;;;;;;;90.28;56.03;;;;;;;9.09;100.00;101614.56;4971352;28;20133;-82
2021/05/20 07:12:14;;;;;;;86.78;54.15;;;;;;;8.95;100.00;101618.44;4972307;28;20129;-81
2021/05/20 07:14:40;;;;;;;100.85;53.00;;;;;;;8.85;100.00;101603.28;4989038;28;20043;-81
2021/05/20 07:17:06;;;;;;;109.65;62.58;;;;;;;8.91;100.00;101605.44;4969888;28;20142;-80
2021/05/20 07:19:33;;;;;;;98.32;58.35;;;;;;;8.92;100.00;101608.00;4966237;28;20065;-81
2021/05/20 07:22:00;;;;;;;92.80;57.58;;;;;;;8.95;100.00;101617.59;4982942;28;20096;-81
2021/05/20 07:24:26;;;;;;;98.65;55.75;;;;;;;8.89;100.00;101618.97;4966121;28;20042;-83
2021/05/20 07:26:54;;;;;;;103.57;56.72;;;;;;;8.82;100.00;101618.63;4984805;28;20097;-82
2021/05/20 07:29:20;;;;;;;96.35;58.20;;;;;;;8.82;100.00;101615.94;4953412;28;20096;-81
2021/05/20 07:31:45;;;;;;;108.10;61.75;;;;;;;8.87;100.00;101628.09;4970207;28;20177;-83
2021/05/20 07:34:11;;;;;;;119.15;64.18;;;;;;;8.94;100.00;101621.22;4982093;28;20097;-80
2021/05/20 07:36:36;;;;;;;102.47;57.30;;;;;;;8.78;100.00;101629.75;4984210;28;20459;-84
2021/05/20 07:39:04;;;;;;;93.18;54.85;;;;;;;8.62;100.00;101632.88;4970454;28;20046;-82
2021/05/20 07:41:30;;;;;;;90.63;52.47;;;;;;;8.59;100.00;101633.16;4969933;28;20527;-82
2021/05/20 07:43:56;;;;;;;93.38;56.88;;;;;;;8.61;100.00;101639.22;4955555;28;20042;-83
2021/05/20 07:46:21;;;;;;;91.57;57.38;;;;;;;8.68;100.00;101643.06;4967372;28;20039;-81
2021/05/20 07:48:47;;;;;;;89.63;57.45;;;;;;;8.67;100.00;101641.38;4964328;28;20073;-82
2021/05/20 07:51:12;;;;;;;87.82;56.40;;;;;;;8.60;100.00;101645.53;4983743;28;20048;-83
2021/05/20 07:53:38;;;;;;;93.88;63.28;;;;;;;8.65;100.00;101643.31;4973547;28;20035;-81
2021/05/20 07:56:04;;;;;;;94.20;59.17;;;;;;;8.59;100.00;101643.84;4987384;28;20046;-80
2021/05/20 07:58:31;;;;;;;95.80;59.22;;;;;;;8.67;100.00;101638.69;4977582;28;20100;-81
2021/05/20 08:00:57;;;;;;;94.65;58.80;;;;;;;8.70;100.00;101646.44;4970679;28;20117;-81
2021/05/20 08:03:30;;;;;;;87.35;55.95;;;;;;;8.82;100.00;101639.19;4974808;28;20438;-82
2021/05/20 08:06:17;;;;;;;80.50;48.97;;;;;;;8.81;100.00;101641.03;4967546;28;20050;-82
2021/05/20 08:11:26;;;;;;;75.63;44.95;;;;;;;8.88;100.00;101632.47;4990482;28;20057;-84
2021/05/20 08:13:52;;;;;;;76.75;48.08;;;;;;;8.95;100.00;101633.66;4972059;28;20043;-81
2021/05/20 08:16:19;;;;;;;69.00;46.05;;;;;;;9.03;100.00;101639.16;4954449;28;20495;-81
2021/05/20 08:18:44;;;;;;;67.10;42.10;;;;;;;9.06;100.00;101636.22;4982567;28;20046;-81
2021/05/20 08:21:10;;;;;;;60.08;39.08;;;;;;;9.12;100.00;101633.03;4986024;28;20080;-82
2021/05/20 08:23:36;;;;;;;60.35;38.40;;;;;;;9.23;100.00;101626.69;4968573;28;20070;-81
2021/05/20 08:26:03;;;;;;;59.15;38.13;;;;;;;9.33;100.00;101627.59;4967704;28;20050;-81
2021/05/20 08:28:31;;;;;;;58.55;37.22;;;;;;;9.40;100.00;101625.22;4986685;28;20110;-82
2021/05/20 08:31:01;;;;;;;55.83;32.80;;;;;;;9.41;100.00;101630.44;4970443;28;20042;-82
2021/05/20 08:33:27;;;;;;;53.22;31.48;;;;;;;9.41;100.00;101630.44;4971305;28;20050;-83
2021/05/20 08:35:54;;;;;;;50.38;31.17;;;;;;;9.40;100.00;101635.94;4954945;28;20526;-82
2021/05/20 08:38:24;;;;;;;45.22;29.27;;;;;;;9.39;100.00;101634.25;4987302;28;20976;-83
2021/05/20 08:40:56;;;;;;;47.88;30.38;;;;;;;9.44;100.00;101629.34;4988817;28;20050;-83
2021/05/20 08:43:22;;;;;;;42.15;28.65;;;;;;;9.51;100.00;101629.63;4971861;28;20137;-81
2021/05/20 08:45:53;;;;;;;39.40;25.98;;;;;;;9.56;100.00;101632.75;4953242;28;20478;-82
2021/05/20 08:48:18;;;;;;;43.17;28.42;;;;;;;9.63;100.00;101629.38;4987827;28;20049;-82
2021/05/20 08:50:44;;;;;;;41.80;28.38;;;;;;;9.53;100.00;101641.91;4974342;28;20738;-84
2021/05/20 08:53:13;;;;;;;39.97;28.55;;;;;;;9.56;100.00;101628.22;4942397;28;20049;-83
2021/05/20 08:55:38;;;;;;;37.87;27.40;;;;;;;9.68;100.00;101631.66;4983131;28;20038;-83
2021/05/20 08:58:06;;;;;;;35.92;24.98;;;;;;;9.75;98.19;101629.25;4987252;28;20034;-83
2021/05/20 09:00:35;;;;;;;37.67;26.55;;;;;;;9.69;98.37;101623.44;4959934;28;20054;-82
2021/05/20 09:03:12;;;;;;;39.00;25.58;;;;;;;9.79;99.69;101628.00;4973487;28;20070;-82
2021/05/20 09:05:40;;;;;;;43.83;29.55;;;;;;;9.85;99.32;101620.25;4981138;28;20513;-81
2021/05/20 09:08:11;;;;;;;43.25;26.17;;;;;;;9.78;98.34;101620.94;4976226;28;20458;-84
2021/05/20 09:10:38;;;;;;;40.53;27.08;;;;;;;9.79;98.25;101622.66;4976389;28;20537;-83
2021/05/20 09:13:08;;;;;;;38.22;27.58;;;;;;;9.91;97.84;101621.53;4954990;28;20443;-82
2021/05/20 09:15:47;;;;;;;39.30;28.45;;;;;;;9.98;97.20;101625.31;4986186;28;20039;-83
2021/05/20 09:18:15;;;;;;;40.33;26.10;;;;;;;9.97;95.36;101614.75;4971427;28;20050;-82
2021/05/20 09:20:48;;;;;;;41.33;28.37;;;;;;;10.07;97.01;101618.25;4971949;28;20065;-82
2021/05/20 09:23:21;;;;;;;40.40;29.52;;;;;;;10.17;96.80;101617.28;4986271;28;20038;-82
2021/05/20 09:25:53;;;;;;;37.97;27.17;;;;;;;10.31;95.83;101613.38;4984605;28;20066;-82
2021/05/20 09:28:42;;;;;;;39.67;25.95;;;;;;;10.53;94.71;101614.91;4988876;28;20038;-82
2021/05/20 09:31:10;;;;;;;39.78;27.23;;;;;;;10.70;94.96;101604.41;4956456;28;20050;-81
2021/05/20 09:33:38;;;;;;;39.80;27.60;;;;;;;10.80;94.60;101600.69;4989396;28;20573;-83
2021/05/20 09:36:04;;;;;;;41.53;26.60;;;;;;;10.92;94.12;101606.72;4986985;28;20384;-82
2021/05/20 09:38:29;;;;;;;37.67;25.58;;;;;;;10.99;92.63;101597.13;4974755;28;20045;-82
2021/05/20 09:41:04;;;;;;;37.53;23.15;;;;;;;11.02;90.74;101602.19;4956343;28;20039;-83
2021/05/20 09:43:32;;;;;;;33.08;22.20;;;;;;;11.15;91.30;101598.31;4971370;28;20047;-82
2021/05/20 09:46:03;;;;;;;37.88;25.63;;;;;;;11.19;91.27;101592.50;4972010;28;20049;-81
2021/05/20 09:48:50;;;;;;;34.90;23.73;;;;;;;11.21;89.25;101592.34;4981225;28;20121;-83
2021/05/20 09:51:27;;;;;;;33.42;23.45;;;;;;;11.17;89.32;101593.66;4956004;28;20500;-83
2021/05/20 09:53:53;;;;;;;37.35;25.77;;;;;;;11.21;89.75;101592.34;4944873;28;20047;-83
2021/05/20 09:56:41;;;;;;;35.83;25.00;;;;;;;11.33;90.07;101591.13;4966230;28;20046;-82
2021/05/20 09:59:16;;;;;;;34.38;23.52;;;;;;;11.52;89.04;101585.66;4972914;28;20042;-80
2021/05/20 10:01:45;;;;;;;33.55;24.30;;;;;;;11.58;88.81;101575.31;4985604;28;20043;-81
2021/05/20 10:04:29;;;;;;;34.58;23.90;;;;;;;11.44;88.50;101582.88;4968512;28;20093;-81
2021/05/20 10:06:56;;;;;;;35.15;25.45;;;;;;;11.44;87.81;101577.50;4963576;28;20047;-81
2021/05/20 10:09:24;;;;;;;36.70;27.33;;;;;;;11.53;90.45;101575.75;4970185;28;20395;-80
2021/05/20 10:11:56;;;;;;;37.95;26.50;;;;;;;11.58;88.66;101575.31;4969846;28;20041;-82
2021/05/20 10:14:22;;;;;;;36.97;25.48;;;;;;;11.82;87.93;101566.63;4970678;28;20401;-81
2021/05/20 10:16:57;;;;;;;36.33;25.75;;;;;;;12.04;88.39;101571.56;4956117;28;20611;-81
2021/05/20 10:19:22;;;;;;;34.42;26.40;;;;;;;12.32;86.76;101563.41;4987804;28;20054;-81
2021/05/20 10:21:52;;;;;;;35.90;26.17;;;;;;;12.30;85.30;101554.63;4973129;28;20046;-82
2021/05/20 10:24:18;;;;;;;36.13;25.50;;;;;;;12.17;83.95;101571.19;4955404;28;20129;-81
2021/05/20 10:26:44;;;;;;;37.83;28.30;;;;;;;12.11;83.70;101563.72;4973792;28;20074;-82
2021/05/20 10:29:09;;;;;;;39.10;29.63;;;;;;;12.09;84.36;101574.66;4974495;28;20439;-80
2021/05/20 10:31:40;;;;;;;37.60;30.88;;;;;;;12.22;84.61;101559.94;4957559;28;20042;-82
2021/05/20 10:34:06;;;;;;;38.40;29.35;;;;;;;12.27;83.22;101560.31;4967616;28;20053;-80
2021/05/20 10:36:34;;;;;;;38.63;29.83;;;;;;;12.48;83.63;101559.97;4969065;28;20137;-81
2021/05/20 10:39:22;;;;;;;38.70;28.17;;;;;;;12.61;81.94;101561.25;4987325;28;20069;-82
2021/05/20 10:41:50;;;;;;;41.30;31.73;;;;;;;12.71;82.32;101557.59;4981322;28;20074;-81
2021/05/20 10:44:17;;;;;;;43.15;32.03;;;;;;;12.70;82.08;101566.69;4984654;28;20157;-82
2021/05/20 10:46:59;;;;;;;46.30;34.42;;;;;;;12.75;83.32;101553.59;4971653;28;20050;-82
2021/05/20 10:49:53;;;;;;;45.55;31.33;;;;;;;12.83;80.71;101554.47;4970777;28;20533;-82
2021/05/20 10:52:38;;;;;;;44.70;34.35;;;;;;;12.87;80.84;101555.00;4970605;28;20050;-81
2021/05/20 10:55:07;;;;;;;44.28;33.70;;;;;;;13.00;81.02;101552.69;4950453;28;20054;-81
2021/05/20 10:58:01;;;;;;;49.08;34.88;;;;;;;13.14;81.09;101553.91;4981121;28;20037;-83
2021/05/20 11:00:41;;;;;;;44.10;30.95;;;;;;;13.02;78.08;101539.06;4969272;28;20042;-83
2021/05/20 11:03:09;;;;;;;45.10;31.67;;;;;;;13.06;80.05;101546.66;4967318;28;20042;-82
2021/05/20 11:05:43;;;;;;;45.85;31.60;;;;;;;13.03;79.86;101540.72;4981378;28;20061;-83
2021/05/20 11:08:36;;;;;;;43.92;32.70;;;;;;;13.01;79.86;101538.22;4971109;28;20050;-83
2021/05/20 11:11:20;;;;;;;41.15;28.30;;;;;;;13.00;78.88;101525.72;4970464;28;20046;-82
2021/05/20 11:13:46;;;;;;;37.05;26.52;;;;;;;13.08;77.74;101516.84;4966374;28;20038;-82
2021/05/20 11:16:20;;;;;;;36.28;26.90;;;;;;;13.12;76.97;101523.63;4937851;28;20085;-83
2021/05/20 11:18:49;;;;;;;38.50;28.20;;;;;;;13.22;78.74;101512.69;4967984;28;20194;-82